Time;durP1;ratioP1;P1;durP2;ratioP2;P2;SDS_P1;SDS_P2;PMS_P1;PMS_P2;Temp;Humidity;BMP_temperature;BMP_pressure;BME280_temperature;BME280_humidity;BME280_pressure;Samples;Min_cycle;Max_cycle;Signal;HPM_P1;HPM_P2
2022/11/07 00:01:34;;;;;;;7;4.1;;;;;;;;;;;;;
2022/11/07 00:04:04;;;;;;;7.8;3.9;;;;;;;;;;;;;
2022/11/07 00:06:31;;;;;;;5;3;;;;;;;;;;;;;
2022/11/07 00:08:56;;;;;;;5.6;3.1;;;;;;;;;;;;;
2022/11/07 00:11:26;;;;;;;6.4;3.5;;;;;;;;;;;;;
2022/11/07 00:13:57;;;;;;;6.3;3.8;;;;;;;;;;;;;
2022/11/07 00:16:32;;;;;;;3.4;2.5;;;;;;;;;;;;;
2022/11/07 00:19:05;;;;;;;3.4;2.3;;;;;;;;;;;;;
2022/11/07 00:21:34;;;;;;;3.2;2.5;;;;;;;;;;;;;
2022/11/07 00:24:01;;;;;;;2.2;1.6;;;;;;;;;;;;;
2022/11/07 00:26:26;;;;;;;2.2;1.3;;;;;;;;;;;;;
2022/11/07 00:28:51;;;;;;;2.5;2;;;;;;;;;;;;;
2022/11/07 00:31:17;;;;;;;2.7;2.2;;;;;;;;;;;;;
2022/11/07 00:33:42;;;;;;;3.7;2.1;;;;;;;;;;;;;
2022/11/07 00:36:07;;;;;;;3.1;2.3;;;;;;;;;;;;;
2022/11/07 00:38:33;;;;;;;3.6;2.5;;;;;;;;;;;;;
2022/11/07 00:40:58;;;;;;;4.3;2.9;;;;;;;;;;;;;
2022/11/07 00:43:24;;;;;;;3.9;2.6;;;;;;;;;;;;;
2022/11/07 00:45:49;;;;;;;4.3;2.4;;;;;;;;;;;;;
2022/11/07 00:48:14;;;;;;;3.9;2.8;;;;;;;;;;;;;
2022/11/07 00:50:41;;;;;;;3.2;2.7;;;;;;;;;;;;;
2022/11/07 00:53:06;;;;;;;4.1;3.1;;;;;;;;;;;;;
2022/11/07 00:55:31;;;;;;;4.3;2.9;;;;;;;;;;;;;
2022/11/07 00:57:56;;;;;;;4.8;2.9;;;;;;;;;;;;;
2022/11/07 01:00:24;;;;;;;4.6;2.7;;;;;;;;;;;;;
2022/11/07 01:05:09;;;;;;;4.1;2.7;;;;;;;;;;;;;
2022/11/07 01:05:15;;;;;;;3.5;2.3;;;;;;;;;;;;;
2022/11/07 01:07:41;;;;;;;3.5;2;;;;;;;;;;;;;
2022/11/07 01:10:06;;;;;;;2.8;1.8;;;;;;;;;;;;;
2022/11/07 01:12:33;;;;;;;2.5;1.8;;;;;;;;;;;;;
2022/11/07 01:14:58;;;;;;;2.5;1.6;;;;;;;;;;;;;
2022/11/07 01:17:24;;;;;;;1.4;1.3;;;;;;;;;;;;;
2022/11/07 01:19:49;;;;;;;1.5;1.3;;;;;;;;;;;;;
2022/11/07 01:22:15;;;;;;;1.7;1.5;;;;;;;;;;;;;
2022/11/07 01:24:40;;;;;;;2.6;1.8;;;;;;;;;;;;;
2022/11/07 01:27:05;;;;;;;3.2;2.3;;;;;;;;;;;;;
2022/11/07 01:29:30;;;;;;;2.9;2.2;;;;;;;;;;;;;
2022/11/07 01:31:55;;;;;;;3;2.5;;;;;;;;;;;;;
2022/11/07 01:34:21;;;;;;;4.3;2.4;;;;;;;;;;;;;
2022/11/07 01:36:46;;;;;;;5.2;2.7;;;;;;;;;;;;;
2022/11/07 01:39:11;;;;;;;3.6;2.3;;;;;;;;;;;;;
2022/11/07 01:41:37;;;;;;;3.7;2.4;;;;;;;;;;;;;
2022/11/07 01:44:02;;;;;;;3.5;2.1;;;;;;;;;;;;;
2022/11/07 01:46:27;;;;;;;3.5;2.3;;;;;;;;;;;;;
2022/11/07 01:48:52;;;;;;;3;2;;;;;;;;;;;;;
2022/11/07 01:51:18;;;;;;;2.9;1.9;;;;;;;;;;;;;
2022/11/07 01:53:43;;;;;;;3.5;2.2;;;;;;;;;;;;;
2022/11/07 01:56:08;;;;;;;2.4;2;;;;;;;;;;;;;
2022/11/07 01:58:33;;;;;;;2.7;2.1;;;;;;;;;;;;;
2022/11/07 02:01:00;;;;;;;3.7;2.3;;;;;;;;;;;;;
2022/11/07 02:03:25;;;;;;;3.3;2.2;;;;;;;;;;;;;
2022/11/07 02:05:50;;;;;;;2.6;2.2;;;;;;;;;;;;;
2022/11/07 02:08:16;;;;;;;2.7;2.2;;;;;;;;;;;;;
2022/11/07 02:10:41;;;;;;;2.5;1.8;;;;;;;;;;;;;
2022/11/07 02:13:23;;;;;;;2.5;2;;;;;;;;;;;;;
2022/11/07 02:15:48;;;;;;;2.5;1.9;;;;;;;;;;;;;
2022/11/07 02:18:13;;;;;;;3.4;2.1;;;;;;;;;;;;;
2022/11/07 02:20:38;;;;;;;3.6;1.9;;;;;;;;;;;;;
2022/11/07 02:23:03;;;;;;;2.1;1.9;;;;;;;;;;;;;
2022/11/07 02:25:28;;;;;;;2.9;1.9;;;;;;;;;;;;;
2022/11/07 02:27:53;;;;;;;2.6;1.8;;;;;;;;;;;;;
2022/11/07 02:30:21;;;;;;;2.1;1.8;;;;;;;;;;;;;
2022/11/07 02:32:47;;;;;;;2.1;1.5;;;;;;;;;;;;;
2022/11/07 02:35:12;;;;;;;2.4;1.8;;;;;;;;;;;;;
2022/11/07 02:37:41;;;;;;;2.1;1.7;;;;;;;;;;;;;
2022/11/07 02:40:06;;;;;;;2.5;1.8;;;;;;;;;;;;;
2022/11/07 02:42:42;;;;;;;2.2;1.7;;;;;;;;;;;;;
2022/11/07 02:44:58;;;;;;;2.6;1.7;;;;;;;;;;;;;
2022/11/07 02:47:24;;;;;;;1.4;1.3;;;;;;;;;;;;;
2022/11/07 02:49:49;;;;;;;2.7;1.6;;;;;;;;;;;;;
2022/11/07 02:52:16;;;;;;;3;1.4;;;;;;;;;;;;;
2022/11/07 02:54:41;;;;;;;1.5;1;;;;;;;;;;;;;
2022/11/07 02:57:08;;;;;;;2.1;1.3;;;;;;;;;;;;;
2022/11/07 02:59:33;;;;;;;1.7;1.2;;;;;;;;;;;;;
2022/11/07 03:01:58;;;;;;;1.7;1.3;;;;;;;;;;;;;
2022/11/07 03:04:24;;;;;;;1.7;1.3;;;;;;;;;;;;;
2022/11/07 03:06:50;;;;;;;2.3;1.4;;;;;;;;;;;;;
2022/11/07 03:09:15;;;;;;;1.4;1.3;;;;;;;;;;;;;
2022/11/07 03:11:41;;;;;;;2.1;1.6;;;;;;;;;;;;;
2022/11/07 03:14:06;;;;;;;2.4;1.6;;;;;;;;;;;;;
2022/11/07 03:16:32;;;;;;;2;1.6;;;;;;;;;;;;;
2022/11/07 03:18:57;;;;;;;2.6;1.7;;;;;;;;;;;;;
2022/11/07 03:21:23;;;;;;;4.8;1.7;;;;;;;;;;;;;
2022/11/07 03:23:48;;;;;;;1.7;1.4;;;;;;;;;;;;;
2022/11/07 03:26:15;;;;;;;2.3;1.5;;;;;;;;;;;;;
2022/11/07 03:28:52;;;;;;;1.4;1.3;;;;;;;;;;;;;
2022/11/07 03:31:17;;;;;;;1.9;1.3;;;;;;;;;;;;;
2022/11/07 03:33:43;;;;;;;1.6;1.3;;;;;;;;;;;;;
2022/11/07 03:36:10;;;;;;;2.4;1.2;;;;;;;;;;;;;
2022/11/07 03:38:35;;;;;;;1.1;1.1;;;;;;;;;;;;;
2022/11/07 03:41:00;;;;;;;2;1.4;;;;;;;;;;;;;
2022/11/07 03:43:25;;;;;;;1.6;1.4;;;;;;;;;;;;;
2022/11/07 03:45:50;;;;;;;2;1.6;;;;;;;;;;;;;
2022/11/07 03:48:15;;;;;;;2.3;1.5;;;;;;;;;;;;;
2022/11/07 03:50:40;;;;;;;2.1;1.4;;;;;;;;;;;;;
2022/11/07 03:53:08;;;;;;;2.9;1.6;;;;;;;;;;;;;
2022/11/07 03:55:33;;;;;;;2;1.6;;;;;;;;;;;;;
2022/11/07 03:57:58;;;;;;;1.7;1.6;;;;;;;;;;;;;
2022/11/07 04:02:36;;;;;;;3.2;2.2;;;;;;;4.79;89.83496;939.0225;;;;
2022/11/07 04:05:05;;;;;;;2.7;2.1;;;;;;;4.84;89.75391;939.0457;;;;
2022/11/07 04:07:30;;;;;;;5.3;2;;;;;;;4.82;89.66211;939.0631;;;;
2022/11/07 04:10:01;;;;;;;3.1;1.9;;;;;;;4.73;89.9248;939.046;;;;
2022/11/07 04:19:43;;;;;;;2.8;1.8;;;;;;;4.56;90.80957;939.2394;;;;
2022/11/07 04:22:13;;;;;;;1.8;1.6;;;;;;;4.5;91.38379;939.3218;;;;
2022/11/07 04:24:41;;;;;;;1.6;1.4;;;;;;;4.58;91.09473;939.3552;;;;
2022/11/07 04:29:31;;;;;;;1.4;1.3;;;;;;;4.59;90.34473;939.3855;;;;
2022/11/07 04:32:02;;;;;;;2.4;1.4;;;;;;;4.62;90.13672;939.4278;;;;
2022/11/07 04:34:30;;;;;;;1.7;1.6;;;;;;;4.67;89.90039;939.4563;;;;
2022/11/07 04:36:55;;;;;;;2.2;1.7;;;;;;;4.68;89.89063;939.5275;;;;
2022/11/07 04:39:24;;;;;;;1.7;1.5;;;;;;;4.67;89.95605;939.551;;;;
2022/11/07 04:41:49;;;;;;;3.1;2.4;;;;;;;4.58;90.25098;939.4742;;;;
2022/11/07 04:44:19;;;;;;;3.8;2.8;;;;;;;4.5;90.73047;939.4252;;;;
2022/11/07 04:46:44;;;;;;;6.8;4.8;;;;;;;4.49;90.54883;939.3901;;;;
2022/11/07 04:49:14;;;;;;;5;2.6;;;;;;;4.35;90.78809;939.3842;;;;
2022/11/07 04:51:37;;;;;;;2.7;1.7;;;;;;;4.24;91.54102;939.3757;;;;
2022/11/07 04:54:02;;;;;;;3.1;1.9;;;;;;;4.24;91.67676;939.4355;;;;
2022/11/07 04:56:27;;;;;;;2.9;1.7;;;;;;;4.34;91.40527;939.406;;;;
2022/11/07 04:58:57;;;;;;;2.1;1.8;;;;;;;4.24;91.15918;939.4586;;;;
2022/11/07 05:01:23;;;;;;;3.7;2.7;;;;;;;4.16;92.08789;939.4554;;;;
2022/11/07 05:03:54;;;;;;;4.2;2.7;;;;;;;4.33;91.81934;939.3984;;;;
2022/11/07 05:06:22;;;;;;;4.8;2.4;;;;;;;4.37;92.1084;939.4501;;;;
2022/11/07 05:08:46;;;;;;;3.3;2;;;;;;;4.5;91.59766;939.4796;;;;
2022/11/07 05:11:13;;;;;;;1.3;1.2;;;;;;;4.56;91.08203;939.4352;;;;
2022/11/07 05:13:38;;;;;;;2.3;1.4;;;;;;;4.66;90.35742;939.3416;;;;
2022/11/07 05:16:08;;;;;;;2.4;1.3;;;;;;;4.81;89.68066;939.4295;;;;
2022/11/07 05:18:38;;;;;;;1.6;1.2;;;;;;;4.77;89.44629;939.5139;;;;
2022/11/07 05:21:04;;;;;;;3.8;2.3;;;;;;;4.78;88.96484;939.5231;;;;
2022/11/07 05:23:29;;;;;;;6.2;3.7;;;;;;;4.62;89.65234;939.5508;;;;
2022/11/07 05:26:32;;;;;;;5.1;3.1;;;;;;;4.48;90.08301;939.5637;;;;
2022/11/07 05:28:58;;;;;;;4.1;2.3;;;;;;;4.43;90.35547;939.6244;;;;
2022/11/07 05:31:23;;;;;;;6.1;3.4;;;;;;;4.22;91.2002;939.6202;;;;
2022/11/07 05:33:50;;;;;;;6;3.1;;;;;;;4.15;91.66797;939.7102;;;;
2022/11/07 05:36:43;;;;;;;5.4;3.2;;;;;;;4.12;91.84277;939.6772;;;;
2022/11/07 05:39:10;;;;;;;2.8;2.1;;;;;;;4.09;91.98047;939.7618;;;;
2022/11/07 05:41:35;;;;;;;3.6;2.1;;;;;;;4.11;91.95313;939.7272;;;;
2022/11/07 05:44:01;;;;;;;2.6;1.9;;;;;;;4.07;92.48535;939.6312;;;;
2022/11/07 05:46:26;;;;;;;2.9;1.8;;;;;;;4.09;92.36328;939.6821;;;;
2022/11/07 05:48:53;;;;;;;3.3;1.7;;;;;;;4.18;92.08105;939.7461;;;;
2022/11/07 05:51:17;;;;;;;7;1.8;;;;;;;4.25;91.82422;939.8119;;;;
2022/11/07 05:53:43;;;;;;;1.8;1.7;;;;;;;4.32;91.24414;939.7606;;;;
2022/11/07 05:56:10;;;;;;;3.7;1.7;;;;;;;4.35;91.24023;939.8131;;;;
2022/11/07 05:58:35;;;;;;;2.9;2.1;;;;;;;4.31;91.11816;939.9063;;;;
2022/11/07 06:19:40;;;;;;;4.8;2.5;;;;;;;4.08;91.56445;940.0435;;;;
2022/11/07 06:22:06;;;;;;;3.4;2.2;;;;;;;4.16;91.70605;940.1354;;;;
2022/11/07 06:24:31;;;;;;;2.6;2.3;;;;;;;4.24;91.32715;940.1253;;;;
2022/11/07 06:26:58;;;;;;;4.2;2.4;;;;;;;4.12;91.75195;940.1136;;;;
2022/11/07 06:29:23;;;;;;;2.4;1.2;;;;;;;4.19;91.19434;940.0435;;;;
2022/11/07 06:31:51;;;;;;;2;1.6;;;;;;;4.37;91.13184;940.0503;;;;
2022/11/07 06:34:16;;;;;;;2.2;1.6;;;;;;;4.47;90.38672;940.1124;;;;
2022/11/07 06:36:44;;;;;;;2.9;1.8;;;;;;;4.62;89.65234;940.0578;;;;
2022/11/07 06:39:09;;;;;;;2.1;1.8;;;;;;;4.72;88.9873;940.022;;;;
2022/11/07 06:41:36;;;;;;;2.4;2.1;;;;;;;4.58;89.00293;940.0989;;;;
2022/11/07 06:44:01;;;;;;;6.4;2.3;;;;;;;4.46;89.41699;940.0568;;;;
2022/11/07 06:46:27;;;;;;;4.9;2.4;;;;;;;4.37;89.93652;940.0823;;;;
2022/11/07 06:48:53;;;;;;;4.2;3.1;;;;;;;4.21;92.5459;940.1594;;;;
2022/11/07 06:51:22;;;;;;;4.6;3.3;;;;;;;4.67;92.60254;940.2033;;;;
2022/11/07 06:53:49;;;;;;;5.6;3.2;;;;;;;5.15;89.14355;940.1605;;;;
2022/11/07 06:56:16;;;;;;;5.2;2.7;;;;;;;5.53;86.85352;940.1702;;;;
2022/11/07 06:58:41;;;;;;;4.9;2.8;;;;;;;5.99;84.75488;940.2056;;;;
2022/11/07 07:01:08;;;;;;;4.4;2.6;;;;;;;6.41;81.61426;940.2352;;;;
2022/11/07 07:03:32;;;;;;;3.6;2.3;;;;;;;6.58;80.68555;940.2649;;;;
2022/11/07 07:06:00;;;;;;;2.7;1.8;;;;;;;6.33;80.42285;940.2927;;;;
2022/11/07 07:08:25;;;;;;;2;1.7;;;;;;;6.19;81.35938;940.358;;;;
2022/11/07 07:10:51;;;;;;;3.2;2;;;;;;;6.56;80.56836;940.338;;;;
2022/11/07 07:13:17;;;;;;;4;2.7;;;;;;;6.54;80.48438;940.2814;;;;
2022/11/07 07:15:51;;;;;;;5.8;2.6;;;;;;;6.66;80.31543;940.3854;;;;
2022/11/07 07:18:17;;;;;;;2.6;2;;;;;;;7.23;78.50781;940.361;;;;
2022/11/07 07:20:44;;;;;;;2.4;1.9;;;;;;;7.71;76.20313;940.4286;;;;
2022/11/07 07:23:12;;;;;;;3.3;2;;;;;;;7.89;75.45117;940.4623;;;;
2022/11/07 07:25:37;;;;;;;2.5;1.7;;;;;;;7.98;75.27539;940.4716;;;;
2022/11/07 07:28:05;;;;;;;3.8;1.7;;;;;;;8.28;73.83789;940.3914;;;;
2022/11/07 07:30:30;;;;;;;3.7;1.6;;;;;;;8.49;73.19336;940.2568;;;;
2022/11/07 07:32:59;;;;;;;1.4;1.3;;;;;;;8.61;72.06348;940.2503;;;;
2022/11/07 07:35:28;;;;;;;1.5;1.2;;;;;;;9.09;70.72266;940.347;;;;
2022/11/07 07:37:53;;;;;;;1.6;1.2;;;;;;;9.3;69.50586;940.2946;;;;
2022/11/07 07:40:21;;;;;;;2.9;1.4;;;;;;;9.94;67.62598;940.2699;;;;
2022/11/07 07:42:46;;;;;;;3.1;1.6;;;;;;;9.99;66.86816;940.2118;;;;
2022/11/07 07:45:14;;;;;;;1.6;1.4;;;;;;;10.62;65.12695;940.193;;;;
2022/11/07 07:47:40;;;;;;;3.6;2.3;;;;;;;10.98;63.84473;940.1998;;;;
2022/11/07 07:50:07;;;;;;;2.7;1.8;;;;;;;11.24;62.30566;940.1951;;;;
2022/11/07 07:52:32;;;;;;;5.4;1.9;;;;;;;11.41;62.62598;940.1752;;;;
2022/11/07 07:54:59;;;;;;;3.4;1.8;;;;;;;11.37;61.20215;940.1142;;;;
2022/11/07 07:57:24;;;;;;;4.3;1.8;;;;;;;11.54;60.36816;940.1074;;;;
2022/11/07 07:59:51;;;;;;;2.4;1.6;;;;;;;12.05;59.00684;940.1124;;;;
2022/11/07 08:02:16;;;;;;;2.5;1.6;;;;;;;12.53;57.35156;940.027;;;;
2022/11/07 08:04:41;;;;;;;1.8;1.6;;;;;;;12.75;57.17285;940.005;;;;
2022/11/07 08:07:09;;;;;;;1.9;1.2;;;;;;;13.25;54.7002;940.0236;;;;
2022/11/07 08:09:35;;;;;;;0.9;0.6;;;;;;;13.38;52.5332;939.9702;;;;
2022/11/07 08:12:01;;;;;;;1.5;0.7;;;;;;;13.07;52.8877;939.9363;;;;
2022/11/07 08:14:26;;;;;;;0.8;0.6;;;;;;;13.29;53.42969;939.9197;;;;
2022/11/07 08:16:52;;;;;;;0.8;0.7;;;;;;;12.56;54.82031;939.9001;;;;
2022/11/07 08:19:17;;;;;;;1.1;0.8;;;;;;;13.26;54.03516;939.8901;;;;
2022/11/07 08:21:43;;;;;;;2;0.6;;;;;;;13.6;53.30664;939.7907;;;;
2022/11/07 08:24:08;;;;;;;2.5;0.9;;;;;;;13.57;53.32617;939.7106;;;;
2022/11/07 08:26:36;;;;;;;1.4;0.6;;;;;;;13.31;53.28223;939.8373;;;;
2022/11/07 08:29:01;;;;;;;0.7;0.7;;;;;;;12.79;54.66602;939.8126;;;;
2022/11/07 08:31:27;;;;;;;1.3;0.7;;;;;;;12.6;56.07422;939.8667;;;;
2022/11/07 08:33:52;;;;;;;0.8;0.8;;;;;;;12.48;57.22949;939.8862;;;;
2022/11/07 08:36:20;;;;;;;2.1;1.1;;;;;;;12.29;56.95313;939.8234;;;;
2022/11/07 08:38:45;;;;;;;1;0.9;;;;;;;12.43;56.46777;939.7974;;;;
2022/11/07 08:41:16;;;;;;;1.9;1.2;;;;;;;12.05;57.6084;939.8434;;;;
2022/11/07 08:43:45;;;;;;;0.8;0.6;;;;;;;11.55;58.7793;939.8329;;;;
2022/11/07 08:46:10;;;;;;;1.3;1;;;;;;;11.09;59.4248;939.8953;;;;
2022/11/07 08:48:39;;;;;;;0.8;0.8;;;;;;;11.17;61.7334;939.908;;;;
2022/11/07 08:51:04;;;;;;;0.6;0.5;;;;;;;11.07;60.56445;939.8998;;;;
2022/11/07 08:53:30;;;;;;;3.3;0.8;;;;;;;10.88;60.65332;939.8848;;;;
2022/11/07 08:55:55;;;;;;;0.8;0.8;;;;;;;10.83;61.73145;939.8723;;;;
2022/11/07 08:58:22;;;;;;;0.8;0.7;;;;;;;10.86;62.84375;939.8783;;;;
2022/11/07 09:00:47;;;;;;;1.8;0.8;;;;;;;10.96;61.49805;939.8856;;;;
2022/11/07 09:03:13;;;;;;;0.6;0.6;;;;;;;11.08;61.14844;939.8019;;;;
2022/11/07 09:05:41;;;;;;;1.3;0.8;;;;;;;11.1;61.59863;939.8309;;;;
2022/11/07 09:08:08;;;;;;;0.7;0.7;;;;;;;11.2;60.92676;939.8094;;;;
2022/11/07 09:10:33;;;;;;;0.8;0.8;;;;;;;11.27;60.74219;939.7762;;;;
2022/11/07 09:13:00;;;;;;;1.5;0.7;;;;;;;11.24;61.7334;939.7081;;;;
2022/11/07 09:15:26;;;;;;;0.8;0.8;;;;;;;11.34;58.81836;939.7871;;;;
2022/11/07 09:17:55;;;;;;;1.5;0.7;;;;;;;11.45;58.54688;939.7835;;;;
2022/11/07 09:20:23;;;;;;;0.6;0.6;;;;;;;11.48;58.21875;939.7782;;;;
2022/11/07 09:22:48;;;;;;;1.8;0.9;;;;;;;11.55;58.0459;939.8108;;;;
2022/11/07 09:25:18;;;;;;;0.9;0.6;;;;;;;11.61;58.28223;939.8167;;;;
2022/11/07 09:27:42;;;;;;;0.4;0.4;;;;;;;11.54;55.44727;939.782;;;;
2022/11/07 09:30:09;;;;;;;2;0.8;;;;;;;11.75;56.89355;939.783;;;;
2022/11/07 09:32:34;;;;;;;1;0.9;;;;;;;11.91;57.0166;939.7759;;;;
2022/11/07 09:35:02;;;;;;;1.1;0.8;;;;;;;12.1;57.07617;939.7845;;;;
2022/11/07 09:37:27;;;;;;;1.9;0.8;;;;;;;12.26;55.0459;939.7953;;;;
2022/11/07 09:39:55;;;;;;;0.8;0.7;;;;;;;12.41;56.14258;939.8384;;;;
2022/11/07 09:42:22;;;;;;;0.8;0.7;;;;;;;12.25;55.40137;939.84;;;;
2022/11/07 09:44:51;;;;;;;2.3;1.4;;;;;;;12.48;55.80859;939.8375;;;;
2022/11/07 09:47:18;;;;;;;1.2;0.7;;;;;;;12.7;55.30859;939.8571;;;;
2022/11/07 09:49:41;;;;;;;0.7;0.7;;;;;;;12.98;54.58594;939.7927;;;;
2022/11/07 09:52:07;;;;;;;1.5;1;;;;;;;13.24;53.5498;939.8756;;;;
2022/11/07 09:54:32;;;;;;;2.2;0.8;;;;;;;13.5;54.45605;939.8243;;;;
2022/11/07 09:56:58;;;;;;;1.3;1;;;;;;;13.72;54.09277;939.8055;;;;
2022/11/07 09:59:24;;;;;;;1.3;0.7;;;;;;;13.9;52.54883;939.8104;;;;
2022/11/07 10:01:49;;;;;;;0.8;0.8;;;;;;;14.45;52.20117;939.8097;;;;
2022/11/07 10:04:14;;;;;;;1.6;0.9;;;;;;;15.04;49.67578;939.8041;;;;
2022/11/07 10:06:39;;;;;;;2.3;1;;;;;;;15.3;47.83496;939.7283;;;;
2022/11/07 10:09:05;;;;;;;0.9;0.8;;;;;;;15.18;48.9541;939.7961;;;;
2022/11/07 10:11:30;;;;;;;1.5;1.1;;;;;;;14.83;49.22559;939.7054;;;;
2022/11/07 10:13:58;;;;;;;3.3;1.8;;;;;;;14.51;49.78809;939.7004;;;;
2022/11/07 10:16:56;;;;;;;3.2;2.1;;;;;;;14.42;50.45898;939.7101;;;;
2022/11/07 10:19:21;;;;;;;4.1;2.5;;;;;;;14.19;51.31836;939.7166;;;;
2022/11/07 10:21:51;;;;;;;2.9;1.4;;;;;;;14.01;50.81348;939.7126;;;;
2022/11/07 10:24:16;;;;;;;2;1.5;;;;;;;13.89;51.75488;939.7431;;;;
2022/11/07 10:26:41;;;;;;;1.4;1.2;;;;;;;13.73;51.8623;939.7214;;;;
2022/11/07 10:29:06;;;;;;;1.3;0.9;;;;;;;13.97;53.7666;939.7174;;;;
2022/11/07 10:31:31;;;;;;;1.8;0.7;;;;;;;14.21;52.7832;939.7317;;;;
2022/11/07 10:34:17;;;;;;;0.9;0.8;;;;;;;14.4;51.29785;939.6714;;;;
2022/11/07 10:36:42;;;;;;;0.9;0.8;;;;;;;14.67;50.26758;939.6121;;;;
2022/11/07 10:39:07;;;;;;;0.6;0.6;;;;;;;14.6;48.85449;939.5623;;;;
2022/11/07 10:41:33;;;;;;;0.8;0.6;;;;;;;14.55;48.96387;939.5617;;;;
2022/11/07 10:43:58;;;;;;;1.3;0.6;;;;;;;14.32;49.62988;939.4858;;;;
2022/11/07 10:46:25;;;;;;;1.9;0.7;;;;;;;14.16;49.81836;939.5852;;;;
2022/11/07 10:48:55;;;;;;;1.6;0.8;;;;;;;14.33;49.3418;939.546;;;;
2022/11/07 10:51:20;;;;;;;1.3;1.1;;;;;;;14.55;49.40137;939.4063;;;;
2022/11/07 10:53:46;;;;;;;1.1;1;;;;;;;14.75;48.06348;939.5244;;;;
2022/11/07 10:56:11;;;;;;;4.2;1.3;;;;;;;14.88;49.71484;939.5305;;;;
2022/11/07 10:58:40;;;;;;;0.9;0.7;;;;;;;15.05;48.39746;939.5017;;;;
2022/11/07 11:01:09;;;;;;;1.2;0.7;;;;;;;15.13;47.4375;939.4299;;;;
2022/11/07 11:03:34;;;;;;;1.1;0.7;;;;;;;15.22;46.64941;939.4481;;;;
2022/11/07 11:06:00;;;;;;;1;0.7;;;;;;;15.32;46.87988;939.4626;;;;
2022/11/07 11:08:31;;;;;;;0.6;0.6;;;;;;;15.48;48.3623;939.4402;;;;
2022/11/07 11:10:55;;;;;;;1.4;0.7;;;;;;;15.83;47.3623;939.3867;;;;
2022/11/07 11:13:20;;;;;;;0.5;0.5;;;;;;;16.05;47.09668;939.3134;;;;
2022/11/07 11:15:47;;;;;;;1.8;1;;;;;;;16.37;45.46582;939.3039;;;;
2022/11/07 11:18:11;;;;;;;0.6;0.5;;;;;;;16.63;44.44922;939.2749;;;;
2022/11/07 11:20:36;;;;;;;0.6;0.6;;;;;;;16.67;44.32715;939.2634;;;;
2022/11/07 11:23:04;;;;;;;1.3;0.6;;;;;;;16.46;44.76758;939.296;;;;
2022/11/07 11:25:29;;;;;;;0.6;0.6;;;;;;;16.55;44.9043;939.2644;;;;
2022/11/07 11:27:57;;;;;;;1.1;0.7;;;;;;;16.85;45.24902;939.2751;;;;
2022/11/07 11:30:25;;;;;;;0.5;0.5;;;;;;;17.36;46.08984;939.2258;;;;
2022/11/07 11:32:58;;;;;;;1.9;0.8;;;;;;;18.04;43.38477;939.1501;;;;
2022/11/07 11:35:23;;;;;;;1.5;0.5;;;;;;;19.43;40.30664;939.2037;;;;
2022/11/07 11:37:53;;;;;;;0.6;0.5;;;;;;;20.54;36.14258;939.0947;;;;
2022/11/07 11:40:20;;;;;;;1;0.7;;;;;;;21.44;35.7832;939.0715;;;;
2022/11/07 11:42:45;;;;;;;0.6;0.6;;;;;;;21.32;35.93848;939.1136;;;;
2022/11/07 11:45:13;;;;;;;0.9;0.6;;;;;;;20.99;36.32031;939.0692;;;;
2022/11/07 11:47:39;;;;;;;1.4;0.9;;;;;;;20.57;38.19043;939.0329;;;;
2022/11/07 11:50:05;;;;;;;0.9;0.7;;;;;;;20.2;37.3418;939.0201;;;;
2022/11/07 11:52:33;;;;;;;0.8;0.6;;;;;;;19.85;37.89355;939.0057;;;;
2022/11/07 11:54:57;;;;;;;1;0.9;;;;;;;19.67;39.57031;939.0097;;;;
2022/11/07 11:57:22;;;;;;;0.6;0.6;;;;;;;20.28;37.14941;938.9367;;;;
2022/11/07 11:59:51;;;;;;;0.8;0.7;;;;;;;20.81;33.6875;938.9448;;;;
2022/11/07 12:02:21;;;;;;;0.6;0.6;;;;;;;20.99;33.61816;938.9828;;;;
2022/11/07 12:04:46;;;;;;;0.6;0.6;;;;;;;21.48;33.50391;938.9252;;;;
2022/11/07 12:07:12;;;;;;;0.8;0.6;;;;;;;21.95;32.66016;938.8407;;;;
2022/11/07 12:09:38;;;;;;;0.5;0.5;;;;;;;21.71;32.68945;938.8403;;;;
2022/11/07 12:17:28;;;;;;;1.1;0.7;;;;;;;21.95;35.02734;938.7809;;;;
2022/11/07 12:19:55;;;;;;;1.1;0.6;;;;;;;22.78;33.08496;938.7756;;;;
2022/11/07 12:22:22;;;;;;;1.8;0.8;;;;;;;23.65;32.69141;938.8571;;;;
2022/11/07 12:24:47;;;;;;;1.5;0.8;;;;;;;24.11;30.71094;938.7991;;;;
2022/11/07 12:27:12;;;;;;;1;0.6;;;;;;;24.57;30.88477;938.7654;;;;
2022/11/07 12:29:39;;;;;;;1.6;0.8;;;;;;;24.31;29.45313;938.7292;;;;
2022/11/07 12:32:07;;;;;;;0.9;0.6;;;;;;;24.37;31.16504;938.7079;;;;
2022/11/07 12:34:32;;;;;;;0.9;0.8;;;;;;;24.32;29.97168;938.6623;;;;
2022/11/07 12:36:57;;;;;;;0.6;0.6;;;;;;;23.83;31.98633;938.6622;;;;
2022/11/07 12:39:23;;;;;;;0.9;0.7;;;;;;;23.45;31.07715;938.6305;;;;
2022/11/07 12:41:51;;;;;;;0.9;0.8;;;;;;;23.76;32.71094;938.6065;;;;
2022/11/07 12:44:16;;;;;;;1;0.7;;;;;;;23.41;32.29785;938.6577;;;;
2022/11/07 12:46:41;;;;;;;1.6;0.9;;;;;;;23.07;32.83691;938.5795;;;;
2022/11/07 12:49:06;;;;;;;0.7;0.7;;;;;;;23.4;33.04883;938.5502;;;;
2022/11/07 12:51:31;;;;;;;0.5;0.5;;;;;;;23.35;33.02148;938.509;;;;
2022/11/07 12:53:57;;;;;;;0.7;0.7;;;;;;;23.6;32.55859;938.4702;;;;
2022/11/07 12:56:24;;;;;;;1.8;0.7;;;;;;;23.97;32.04395;938.4955;;;;
2022/11/07 12:58:49;;;;;;;0.8;0.7;;;;;;;24.83;31.55078;938.427;;;;
2022/11/07 13:01:14;;;;;;;0.6;0.6;;;;;;;25.45;30.4375;938.4465;;;;
2022/11/07 13:03:39;;;;;;;0.8;0.7;;;;;;;25.88;31.21191;938.3937;;;;
2022/11/07 13:06:04;;;;;;;1.3;0.7;;;;;;;25.95;30.05762;938.3986;;;;
2022/11/07 13:08:30;;;;;;;0.6;0.6;;;;;;;26.99;28.2666;938.4295;;;;
2022/11/07 13:10:55;;;;;;;1.2;0.7;;;;;;;28.26;27.1582;938.3694;;;;
2022/11/07 13:13:20;;;;;;;0.6;0.6;;;;;;;28.05;27.60938;938.3427;;;;
2022/11/07 13:15:51;;;;;;;1.6;0.4;;;;;;;27.47;28.55859;938.3521;;;;
2022/11/07 13:18:16;;;;;;;0.6;0.5;;;;;;;27.83;28.22461;938.3354;;;;
2022/11/07 13:20:44;;;;;;;0.5;0.4;;;;;;;28.39;26.71484;938.3445;;;;
2022/11/07 13:23:09;;;;;;;0.6;0.6;;;;;;;29.66;25.74023;938.3125;;;;
2022/11/07 13:25:39;;;;;;;1;0.5;;;;;;;28.84;26.09863;938.2913;;;;
2022/11/07 13:28:02;;;;;;;0.8;0.5;;;;;;;29.54;26.11426;938.2692;;;;
2022/11/07 13:30:27;;;;;;;0.6;0.5;;;;;;;30.49;24.47461;938.2864;;;;
2022/11/07 13:32:56;;;;;;;0.4;0.4;;;;;;;31.32;22.9873;938.2935;;;;
2022/11/07 13:35:27;;;;;;;0.5;0.5;;;;;;;31.21;23.34082;938.3588;;;;
2022/11/07 13:37:52;;;;;;;0.5;0.5;;;;;;;30.96;23.3877;938.3931;;;;
2022/11/07 13:40:17;;;;;;;1.7;0.6;;;;;;;30.85;23.62109;938.4464;;;;
2022/11/07 13:42:48;;;;;;;1.2;0.5;;;;;;;31.13;22.83398;938.4037;;;;
2022/11/07 13:45:14;;;;;;;0.9;0.6;;;;;;;30.65;24.32715;938.3884;;;;
2022/11/07 13:47:39;;;;;;;1;0.6;;;;;;;29.46;25.77637;938.3775;;;;
2022/11/07 13:50:04;;;;;;;0.7;0.5;;;;;;;28.89;25.6377;938.3898;;;;
2022/11/07 13:52:32;;;;;;;1.3;0.5;;;;;;;28.47;25.67285;938.5041;;;;
2022/11/07 13:54:57;;;;;;;1.5;0.6;;;;;;;29.04;25.44336;938.478;;;;
2022/11/07 13:57:25;;;;;;;0.9;0.5;;;;;;;27.93;26.93652;938.5002;;;;
2022/11/07 13:59:50;;;;;;;1.8;0.9;;;;;;;26.34;29.75293;938.5678;;;;
2022/11/07 14:02:15;;;;;;;0.3;0.3;;;;;;;26.08;30.125;938.5956;;;;
2022/11/07 14:04:40;;;;;;;0.5;0.5;;;;;;;27.08;27.91699;938.4973;;;;
2022/11/07 14:07:06;;;;;;;1.3;0.8;;;;;;;26.88;28.4375;938.4894;;;;
2022/11/07 14:09:33;;;;;;;0.9;0.5;;;;;;;25.57;30.6709;938.5034;;;;
2022/11/07 14:11:58;;;;;;;1;0.7;;;;;;;24.86;31.54199;938.4189;;;;
2022/11/07 14:14:25;;;;;;;1;0.7;;;;;;;25.1;31.0625;938.5081;;;;
2022/11/07 14:16:50;;;;;;;1.6;0.6;;;;;;;24.73;31.32031;938.5413;;;;
2022/11/07 14:19:15;;;;;;;2.6;0.9;;;;;;;25.04;31.02344;938.5394;;;;
2022/11/07 14:21:42;;;;;;;0.6;0.5;;;;;;;26.14;29.89355;938.5335;;;;
2022/11/07 14:24:07;;;;;;;0.9;0.6;;;;;;;26.32;29.08887;938.5363;;;;
2022/11/07 14:26:34;;;;;;;1.4;0.7;;;;;;;26.47;29.96191;938.5139;;;;
2022/11/07 14:28:59;;;;;;;1;0.6;;;;;;;26.35;29.24414;938.4405;;;;
2022/11/07 14:31:24;;;;;;;1.4;0.9;;;;;;;25.61;30.70898;938.4373;;;;
2022/11/07 14:33:52;;;;;;;1.3;0.8;;;;;;;25.97;29.85742;938.3878;;;;
2022/11/07 14:36:16;;;;;;;0.9;0.8;;;;;;;26.26;29.19043;938.5158;;;;
2022/11/07 14:38:42;;;;;;;0.9;0.7;;;;;;;25.95;29.92773;938.4778;;;;
2022/11/07 14:41:07;;;;;;;2.3;0.7;;;;;;;25.69;30.20508;938.5334;;;;
2022/11/07 14:43:34;;;;;;;1.3;0.8;;;;;;;24.99;30.86621;938.5477;;;;
2022/11/07 14:45:59;;;;;;;1.3;0.7;;;;;;;23.69;33.11719;938.6046;;;;
2022/11/07 14:48:24;;;;;;;1.4;0.7;;;;;;;21.74;36.61621;938.5987;;;;
2022/11/07 14:50:52;;;;;;;1.1;0.6;;;;;;;19.87;40.67285;938.5719;;;;
2022/11/07 14:53:17;;;;;;;1.8;0.7;;;;;;;18.53;43.58496;938.5689;;;;
2022/11/07 14:55:42;;;;;;;1.1;0.7;;;;;;;17.93;44.98926;938.5499;;;;
2022/11/07 14:58:11;;;;;;;2.1;0.9;;;;;;;17.5;46.73047;938.5695;;;;
2022/11/07 15:00:36;;;;;;;1.8;0.9;;;;;;;17.43;46.6543;938.5778;;;;
2022/11/07 15:03:01;;;;;;;0.8;0.7;;;;;;;17.1;47.58105;938.6259;;;;
2022/11/07 15:05:30;;;;;;;1.3;0.7;;;;;;;16.85;48.6543;938.598;;;;
2022/11/07 15:07:55;;;;;;;1.9;0.7;;;;;;;16.49;50.08398;938.6429;;;;
2022/11/07 15:10:20;;;;;;;0.8;0.6;;;;;;;16.44;50.26367;938.6033;;;;
2022/11/07 15:12:46;;;;;;;1.6;0.6;;;;;;;16.12;51.34766;938.6106;;;;
2022/11/07 15:15:13;;;;;;;0.8;0.8;;;;;;;15.96;51.9541;938.571;;;;
2022/11/07 15:17:38;;;;;;;1.8;0.7;;;;;;;15.82;52.63184;938.6272;;;;
2022/11/07 15:20:03;;;;;;;0.9;0.8;;;;;;;15.62;52.99902;938.6561;;;;
2022/11/07 15:22:32;;;;;;;2.2;1.1;;;;;;;15.56;53.33984;938.6328;;;;
2022/11/07 15:25:00;;;;;;;3.8;2.2;;;;;;;15.28;54.44824;938.7135;;;;
2022/11/07 15:27:25;;;;;;;3.1;2.4;;;;;;;15.2;55.14063;938.705;;;;
2022/11/07 15:29:52;;;;;;;5.4;3.5;;;;;;;15.06;56.27734;938.6531;;;;
2022/11/07 15:32:17;;;;;;;4.4;3.1;;;;;;;14.96;57.30273;938.717;;;;
2022/11/07 15:34:42;;;;;;;2.4;1.6;;;;;;;14.7;57.61523;938.7767;;;;
2022/11/07 15:37:11;;;;;;;1.8;1.3;;;;;;;14.49;57.66699;938.7399;;;;
2022/11/07 15:39:35;;;;;;;2.2;1.2;;;;;;;14.28;58.19238;938.7778;;;;
2022/11/07 15:42:03;;;;;;;2.4;1.3;;;;;;;14.24;58.0498;938.7788;;;;
2022/11/07 15:44:28;;;;;;;3;1.4;;;;;;;14.22;59.2207;938.6756;;;;
2022/11/07 15:46:57;;;;;;;3.6;1.8;;;;;;;14.07;59.32617;938.7648;;;;
2022/11/07 15:49:26;;;;;;;3.5;1.4;;;;;;;13.98;60.51074;938.8416;;;;
2022/11/07 15:51:51;;;;;;;5;1.8;;;;;;;13.78;61.93457;938.7761;;;;
2022/11/07 15:54:21;;;;;;;3.4;1.6;;;;;;;13.58;60.80078;938.8122;;;;
2022/11/07 15:56:46;;;;;;;2.4;1.6;;;;;;;13.42;61.47949;938.8339;;;;
2022/11/07 15:59:13;;;;;;;4.1;1.6;;;;;;;13.26;61.28516;938.9353;;;;
2022/11/07 16:01:38;;;;;;;3.4;2;;;;;;;13.15;61.66016;938.901;;;;
2022/11/07 16:04:06;;;;;;;7.8;4.9;;;;;;;13.12;61.90918;938.9363;;;;
2022/11/07 16:06:31;;;;;;;43.5;24.1;;;;;;;13.05;63.28906;938.9522;;;;
2022/11/07 16:08:56;;;;;;;56.4;30.2;;;;;;;12.89;64.4248;938.9548;;;;
2022/11/07 16:11:21;;;;;;;62.1;35.5;;;;;;;12.79;65.0752;939.0359;;;;
2022/11/07 16:13:50;;;;;;;34.2;20.7;;;;;;;12.66;65.57324;939.0133;;;;